| time (UTC) | temp F | wind direction | speed knots | gust knots | rain 1hr in | rain 24hr in | rain mn in | humidity % | barometer mb |
| 20260906112902 | 78 | 136 | 0.0 | 0.0 | 0.00 | 0.00 | 0.00 | 93 | 1011.5 |
| 20260906111402 | 78 | 122 | 0.0 | 0.0 | 0.00 | 0.00 | 0.00 | 93 | 1011.2 |
| 20260906105904 | 78 | 109 | 0.0 | 0.0 | 0.00 | 0.00 | 0.00 | 93 | 1011.2 |
| 20260906104902 | 78 | 59 | 0.0 | 0.0 | 0.00 | 0.00 | 0.00 | 93 | 1011.2 |
| 20260906103402 | 78 | 137 | 0.0 | 0.0 | 0.00 | 0.00 | 0.00 | 93 | 1011.2 |
| 20260906101902 | 78 | 93 | 0.0 | 0.0 | 0.00 | 0.00 | 0.00 | 93 | 1011.2 |
| 20260906094903 | 78 | 83 | 0.0 | 0.0 | 0.00 | 0.00 | 0.00 | 93 | 1010.8 |
| 20260906093403 | 78 | 99 | 0.0 | 0.0 | 0.00 | 0.00 | 0.00 | 93 | 1010.8 |
| 20260906091902 | 78 | 131 | 0.0 | 0.0 | 0.00 | 0.00 | 0.00 | 93 | 1010.8 |
| 20260906090503 | 78 | 103 | 0.0 | 0.0 | 0.00 | 0.00 | 0.00 | 93 | 1010.8 |
| 20260906083403 | 78 | 121 | 0.0 | 0.0 | 0.00 | 0.00 | 0.00 | 93 | 1011.2 |
| 20260906081902 | 79 | 113 | 0.0 | 0.0 | 0.00 | 0.00 | 0.00 | 93 | 1011.2 |
| 20260906080403 | 79 | 124 | 0.0 | 0.0 | 0.00 | 0.00 | 0.00 | 93 | 1011.2 |
| 20260906074902 | 78 | 140 | 0.0 | 0.0 | 0.00 | 0.00 | 0.00 | 93 | 1010.8 |
| 20260906073402 | 79 | 338 | 0.0 | 0.0 | 0.00 | 0.00 | 0.00 | 93 | 1011.2 |
| 20260906070403 | 79 | 127 | 0.0 | 0.0 | 0.00 | 0.00 | 0.00 | 93 | 1011.2 |
| 20260906063403 | 79 | 98 | 0.0 | 0.0 | 0.00 | 0.00 | 0.00 | 92 | 1011.2 |
| 20260906061903 | 79 | 132 | 0.0 | 0.0 | 0.00 | 0.00 | 0.00 | 92 | 1011.2 |
| 20260906060403 | 79 | 128 | 0.0 | 0.0 | 0.00 | 0.00 | 0.00 | 92 | 1011.2 |
| 20260906054903 | 79 | 104 | 0.0 | 0.0 | 0.00 | 0.00 | 0.00 | 92 | 1011.5 |
| 20260906053404 | 80 | 111 | 0.0 | 0.0 | 0.00 | 0.00 | 0.00 | 92 | 1011.9 |
| 20260906051903 | 80 | 73 | 0.0 | 0.0 | 0.00 | 0.00 | 0.00 | 91 | 1011.9 |
| 20260906050403 | 80 | 118 | 0.0 | 0.0 | 0.00 | 0.00 | 0.00 | 91 | 1011.9 |
| 20260906044903 | 80 | 71 | 0.0 | 0.0 | 0.00 | 0.00 | 0.00 | 91 | 1011.9 |
| 20260906041902 | 80 | 89 | 0.0 | 0.0 | 0.00 | 0.00 | 0.00 | 90 | 1011.9 |
| 20260906040403 | 80 | 93 | 0.0 | 0.0 | 0.00 | 0.00 | 0.00 | 90 | 1011.9 |
| 20260906035902 | 81 | 127 | 0.0 | 0.0 | 0.00 | 0.00 | 0.00 | 90 | 1011.9 |
| 20260906034404 | 81 | 313 | 0.0 | 0.0 | 0.00 | 0.00 | 0.00 | 89 | 1012.2 |
| 20260906032902 | 81 | 90 | 2.6 | 3.5 | 0.00 | 0.00 | 0.00 | 89 | 1012.2 |
| 20260906031402 | 81 | 93 | 0.0 | 2.6 | 0.00 | 0.00 | 0.00 | 89 | 1012.5 |
| 20260906025902 | 81 | 121 | 0.0 | 0.0 | 0.00 | 0.00 | 0.00 | 88 | 1012.2 |
| 20260906024402 | 82 | 103 | 0.0 | 3.5 | 0.00 | 0.00 | 0.00 | 88 | 1012.2 |
| 20260906021402 | 82 | 92 | 0.0 | 2.6 | 0.00 | 0.00 | 0.00 | 86 | 1011.9 |
| 20260906014901 | 82 | 321 | 0.0 | 2.6 | 0.00 | 0.00 | 0.00 | 84 | 1011.9 |
| 20260906013403 | 82 | 76 | 0.0 | 0.9 | 0.00 | 0.00 | 0.00 | 83 | 1011.9 |
| 20260906011902 | 82 | 315 | 0.0 | 0.0 | 0.00 | 0.00 | 0.00 | 82 | 1011.5 |
| 20260906010403 | 83 | 50 | 0.0 | 0.0 | 0.00 | 0.00 | 0.00 | 81 | 1011.5 |
| 20260905205403 | 94 | 58 | 4.3 | 5.2 | 0.00 | 0.00 | 0.00 | 58 | 1011.2 |
| 20260905203903 | 94 | 147 | 2.6 | 7.8 | 0.00 | 0.00 | 0.00 | 57 | 1010.8 |
| 20260905200902 | 94 | 209 | 2.6 | 4.3 | 0.00 | 0.00 | 0.00 | 58 | 1011.2 |
| 20260905195402 | 93 | 114 | 2.6 | 5.2 | 0.00 | 0.00 | 0.00 | 60 | 1011.2 |
| 20260905193902 | 93 | 98 | 6.1 | 7.0 | 0.00 | 0.00 | 0.00 | 59 | 1011.5 |
| 20260905190902 | 92 | 29 | 2.6 | 5.2 | 0.00 | 0.00 | 0.00 | 60 | 1012.2 |
| 20260905185901 | 93 | 45 | 2.6 | 4.3 | 0.00 | 0.00 | 0.00 | 61 | 1012.2 |
| 20260905184403 | 92 | 89 | 5.2 | 5.2 | 0.00 | 0.00 | 0.00 | 60 | 1012.5 |
| 20260905182902 | 93 | 31 | 6.1 | 6.1 | 0.00 | 0.00 | 0.00 | 60 | 1012.9 |
| 20260905181403 | 93 | 105 | 0.0 | 6.1 | 0.00 | 0.00 | 0.00 | 62 | 1012.9 |
| 20260905175903 | 93 | 220 | 2.6 | 4.3 | 0.00 | 0.00 | 0.00 | 60 | 1013.2 |
| 20260905174403 | 91 | 63 | 1.7 | 5.2 | 0.00 | 0.00 | 0.00 | 65 | 1013.5 |
| 20260905171402 | 89 | 47 | 2.6 | 5.2 | 0.00 | 0.00 | 0.00 | 70 | 1013.9 |
| 20260905165902 | 90 | 2 | 0.0 | 5.2 | 0.00 | 0.00 | 0.00 | 68 | 1013.9 |
| 20260905164402 | 88 | 70 | 5.2 | 6.1 | 0.00 | 0.00 | 0.00 | 71 | 1014.2 |
| 20260905162903 | 90 | 300 | 0.0 | 4.3 | 0.00 | 0.00 | 0.00 | 67 | 1014.2 |
| 20260905161402 | 87 | 90 | 0.0 | 5.2 | 0.00 | 0.00 | 0.00 | 71 | 1014.6 |
| 20260905155903 | 87 | 109 | 0.9 | 5.2 | 0.00 | 0.00 | 0.00 | 74 | 1014.6 |
| 20260905154403 | 87 | 222 | 0.9 | 1.7 | 0.00 | 0.00 | 0.00 | 74 | 1014.9 |
| 20260905152902 | 87 | 191 | 0.9 | 2.6 | 0.00 | 0.00 | 0.00 | 73 | 1014.9 |
| 20260905145905 | 83 | 63 | 3.5 | 6.1 | 0.00 | 0.00 | 0.00 | 80 | 1015.2 |
| 20260905144402 | 82 | 167 | 0.0 | 5.2 | 0.00 | 0.00 | 0.00 | 81 | 1015.2 |
| 20260905142902 | 82 | 49 | 2.6 | 3.5 | 0.00 | 0.00 | 0.00 | 83 | 1015.2 |
| 20260905141404 | 81 | 86 | 3.5 | 6.1 | 0.00 | 0.00 | 0.00 | 84 | 1015.2 |
| 20260905140402 | 81 | 119 | 0.0 | 2.6 | 0.00 | 0.00 | 0.00 | 86 | 1015.2 |
| 20260905133402 | 78 | 82 | 1.7 | 2.6 | 0.00 | 0.00 | 0.00 | 92 | 1015.2 |
| 20260905131902 | 77 | 141 | 0.0 | 3.5 | 0.00 | 0.00 | 0.00 | 93 | 1015.2 |
| 20260905130403 | 78 | 107 | 1.7 | 2.6 | 0.00 | 0.00 | 0.00 | 94 | 1015.2 |